sensor_id;sensor_type;location;lat;lon;timestamp;P1;durP1;ratioP1;P2;durP2;ratioP2
47367;SDS011;34646;47.964;7.982;2022-11-20T00:04:36;7.32;;;3.15;;
47367;SDS011;34646;47.964;7.982;2022-11-20T00:10:37;8.80;;;2.90;;
47367;SDS011;34646;47.964;7.982;2022-11-20T00:22:40;7.18;;;2.15;;
47367;SDS011;34646;47.964;7.982;2022-11-20T00:28:41;6.80;;;2.90;;
47367;SDS011;34646;47.964;7.982;2022-11-20T00:34:42;9.82;;;2.58;;
47367;SDS011;34646;47.964;7.982;2022-11-20T00:40:43;7.63;;;2.43;;
47367;SDS011;34646;47.964;7.982;2022-11-20T00:46:44;7.13;;;2.60;;
47367;SDS011;34646;47.964;7.982;2022-11-20T00:52:44;5.93;;;2.57;;
47367;SDS011;34646;47.964;7.982;2022-11-20T00:58:46;8.27;;;2.90;;
47367;SDS011;34646;47.964;7.982;2022-11-20T01:04:48;6.20;;;2.25;;
47367;SDS011;34646;47.964;7.982;2022-11-20T01:10:48;6.70;;;2.90;;
47367;SDS011;34646;47.964;7.982;2022-11-20T01:16:50;5.47;;;2.27;;
47367;SDS011;34646;47.964;7.982;2022-11-20T01:22:51;5.13;;;2.70;;
47367;SDS011;34646;47.964;7.982;2022-11-20T01:28:52;6.73;;;2.47;;
47367;SDS011;34646;47.964;7.982;2022-11-20T01:40:54;6.35;;;2.40;;
47367;SDS011;34646;47.964;7.982;2022-11-20T01:46:56;4.93;;;2.08;;
47367;SDS011;34646;47.964;7.982;2022-11-20T01:53:02;5.75;;;2.35;;
47367;SDS011;34646;47.964;7.982;2022-11-20T01:59:07;10.55;;;2.28;;
47367;SDS011;34646;47.964;7.982;2022-11-20T02:05:22;5.35;;;2.20;;
47367;SDS011;34646;47.964;7.982;2022-11-20T02:11:29;6.60;;;2.40;;
47367;SDS011;34646;47.964;7.982;2022-11-20T02:17:30;8.38;;;2.70;;
47367;SDS011;34646;47.964;7.982;2022-11-20T02:35:49;4.53;;;2.13;;
47367;SDS011;34646;47.964;7.982;2022-11-20T02:41:49;7.23;;;2.57;;
47367;SDS011;34646;47.964;7.982;2022-11-20T02:47:55;4.75;;;2.40;;
47367;SDS011;34646;47.964;7.982;2022-11-20T02:53:56;4.00;;;1.97;;
47367;SDS011;34646;47.964;7.982;2022-11-20T02:59:57;4.77;;;2.20;;
47367;SDS011;34646;47.964;7.982;2022-11-20T03:05:58;4.93;;;1.80;;
47367;SDS011;34646;47.964;7.982;2022-11-20T03:18:00;6.60;;;1.90;;
47367;SDS011;34646;47.964;7.982;2022-11-20T03:24:01;5.83;;;2.13;;
47367;SDS011;34646;47.964;7.982;2022-11-20T03:30:02;3.73;;;1.63;;
47367;SDS011;34646;47.964;7.982;2022-11-20T03:36:04;4.07;;;2.10;;
47367;SDS011;34646;47.964;7.982;2022-11-20T03:42:07;7.13;;;2.50;;
47367;SDS011;34646;47.964;7.982;2022-11-20T03:54:30;2.77;;;1.90;;
47367;SDS011;34646;47.964;7.982;2022-11-20T04:00:32;3.63;;;1.95;;
47367;SDS011;34646;47.964;7.982;2022-11-20T04:06:36;2.37;;;1.50;;
47367;SDS011;34646;47.964;7.982;2022-11-20T04:12:37;3.75;;;1.85;;
47367;SDS011;34646;47.964;7.982;2022-11-20T04:18:38;4.47;;;2.00;;
47367;SDS011;34646;47.964;7.982;2022-11-20T04:24:39;4.73;;;2.30;;
47367;SDS011;34646;47.964;7.982;2022-11-20T04:30:39;5.13;;;2.17;;
47367;SDS011;34646;47.964;7.982;2022-11-20T04:36:40;4.03;;;1.63;;
47367;SDS011;34646;47.964;7.982;2022-11-20T04:48:43;4.28;;;1.52;;
47367;SDS011;34646;47.964;7.982;2022-11-20T04:54:43;2.80;;;1.70;;
47367;SDS011;34646;47.964;7.982;2022-11-20T05:00:44;3.73;;;1.67;;
47367;SDS011;34646;47.964;7.982;2022-11-20T05:06:45;4.63;;;1.40;;
47367;SDS011;34646;47.964;7.982;2022-11-20T05:12:45;6.13;;;2.63;;
47367;SDS011;34646;47.964;7.982;2022-11-20T05:18:46;4.07;;;1.60;;
47367;SDS011;34646;47.964;7.982;2022-11-20T05:24:47;3.87;;;1.80;;
47367;SDS011;34646;47.964;7.982;2022-11-20T05:30:48;3.53;;;1.50;;
47367;SDS011;34646;47.964;7.982;2022-11-20T05:42:50;3.53;;;1.55;;
47367;SDS011;34646;47.964;7.982;2022-11-20T05:48:50;2.97;;;1.60;;
47367;SDS011;34646;47.964;7.982;2022-11-20T05:54:51;2.20;;;1.50;;
47367;SDS011;34646;47.964;7.982;2022-11-20T06:00:52;5.17;;;1.60;;
47367;SDS011;34646;47.964;7.982;2022-11-20T06:06:53;4.53;;;1.37;;
47367;SDS011;34646;47.964;7.982;2022-11-20T06:12:53;5.60;;;2.40;;
47367;SDS011;34646;47.964;7.982;2022-11-20T06:18:57;6.30;;;2.17;;
47367;SDS011;34646;47.964;7.982;2022-11-20T06:24:58;3.90;;;2.47;;
47367;SDS011;34646;47.964;7.982;2022-11-20T06:30:59;9.03;;;2.73;;
47367;SDS011;34646;47.964;7.982;2022-11-20T06:36:59;5.67;;;2.40;;
47367;SDS011;34646;47.964;7.982;2022-11-20T06:43:00;7.40;;;2.30;;
47367;SDS011;34646;47.964;7.982;2022-11-20T06:49:01;10.90;;;2.63;;
47367;SDS011;34646;47.964;7.982;2022-11-20T06:55:01;3.63;;;2.07;;
47367;SDS011;34646;47.964;7.982;2022-11-20T07:01:04;6.47;;;2.20;;
47367;SDS011;34646;47.964;7.982;2022-11-20T07:07:09;3.78;;;1.77;;
47367;SDS011;34646;47.964;7.982;2022-11-20T07:13:10;8.87;;;2.40;;
47367;SDS011;34646;47.964;7.982;2022-11-20T07:19:11;6.43;;;2.37;;
47367;SDS011;34646;47.964;7.982;2022-11-20T07:25:11;4.80;;;2.00;;
47367;SDS011;34646;47.964;7.982;2022-11-20T07:31:12;5.20;;;2.10;;
47367;SDS011;34646;47.964;7.982;2022-11-20T07:37:14;4.93;;;1.85;;
47367;SDS011;34646;47.964;7.982;2022-11-20T07:49:16;7.63;;;1.85;;
47367;SDS011;34646;47.964;7.982;2022-11-20T07:55:16;6.63;;;2.17;;
47367;SDS011;34646;47.964;7.982;2022-11-20T08:01:17;4.37;;;1.60;;
47367;SDS011;34646;47.964;7.982;2022-11-20T08:07:18;6.20;;;1.90;;
47367;SDS011;34646;47.964;7.982;2022-11-20T08:13:19;7.83;;;2.03;;
47367;SDS011;34646;47.964;7.982;2022-11-20T08:19:38;5.00;;;1.98;;
47367;SDS011;34646;47.964;7.982;2022-11-20T08:25:39;7.37;;;1.67;;
47367;SDS011;34646;47.964;7.982;2022-11-20T08:31:39;11.53;;;1.90;;
47367;SDS011;34646;47.964;7.982;2022-11-20T08:37:41;6.80;;;2.00;;
47367;SDS011;34646;47.964;7.982;2022-11-20T08:43:42;10.13;;;1.67;;
47367;SDS011;34646;47.964;7.982;2022-11-20T08:49:44;5.77;;;1.87;;
47367;SDS011;34646;47.964;7.982;2022-11-20T08:55:45;15.07;;;2.15;;
47367;SDS011;34646;47.964;7.982;2022-11-20T09:01:45;6.30;;;1.70;;
47367;SDS011;34646;47.964;7.982;2022-11-20T09:07:46;5.80;;;1.77;;
47367;SDS011;34646;47.964;7.982;2022-11-20T09:13:48;8.77;;;1.30;;
47367;SDS011;34646;47.964;7.982;2022-11-20T09:19:49;6.38;;;1.50;;
47367;SDS011;34646;47.964;7.982;2022-11-20T09:25:50;7.63;;;1.63;;
47367;SDS011;34646;47.964;7.982;2022-11-20T09:31:50;13.27;;;2.17;;
47367;SDS011;34646;47.964;7.982;2022-11-20T09:37:51;9.50;;;1.83;;
47367;SDS011;34646;47.964;7.982;2022-11-20T09:44:02;18.20;;;1.70;;
47367;SDS011;34646;47.964;7.982;2022-11-20T09:50:27;9.40;;;1.55;;
47367;SDS011;34646;47.964;7.982;2022-11-20T09:56:33;11.70;;;1.63;;
47367;SDS011;34646;47.964;7.982;2022-11-20T10:02:42;6.20;;;1.48;;
47367;SDS011;34646;47.964;7.982;2022-11-20T10:08:55;8.10;;;1.90;;
47367;SDS011;34646;47.964;7.982;2022-11-20T10:15:28;8.77;;;1.83;;
47367;SDS011;34646;47.964;7.982;2022-11-20T10:22:21;9.75;;;1.48;;
47367;SDS011;34646;47.964;7.982;2022-11-20T10:28:23;6.22;;;1.40;;
47367;SDS011;34646;47.964;7.982;2022-11-20T10:41:03;4.20;;;1.48;;
47367;SDS011;34646;47.964;7.982;2022-11-20T10:47:24;4.45;;;1.65;;
47367;SDS011;34646;47.964;7.982;2022-11-20T10:59:58;8.48;;;1.50;;
47367;SDS011;34646;47.964;7.982;2022-11-20T11:12:30;6.30;;;1.77;;
47367;SDS011;34646;47.964;7.982;2022-11-20T11:18:32;7.93;;;1.63;;
47367;SDS011;34646;47.964;7.982;2022-11-20T11:24:34;8.00;;;1.40;;
47367;SDS011;34646;47.964;7.982;2022-11-20T11:30:41;4.13;;;1.37;;
47367;SDS011;34646;47.964;7.982;2022-11-20T11:36:56;4.88;;;1.70;;
47367;SDS011;34646;47.964;7.982;2022-11-20T11:43:04;3.65;;;1.40;;
47367;SDS011;34646;47.964;7.982;2022-11-20T11:49:26;3.88;;;1.55;;
47367;SDS011;34646;47.964;7.982;2022-11-20T12:01:55;4.03;;;1.20;;
47367;SDS011;34646;47.964;7.982;2022-11-20T12:20:15;4.28;;;1.10;;
47367;SDS011;34646;47.964;7.982;2022-11-20T12:26:41;3.05;;;1.10;;
47367;SDS011;34646;47.964;7.982;2022-11-20T12:39:05;5.20;;;1.42;;
47367;SDS011;34646;47.964;7.982;2022-11-20T12:45:42;4.45;;;1.70;;
47367;SDS011;34646;47.964;7.982;2022-11-20T12:51:58;3.20;;;1.08;;
47367;SDS011;34646;47.964;7.982;2022-11-20T13:10:41;4.30;;;1.45;;
47367;SDS011;34646;47.964;7.982;2022-11-20T13:17:04;4.55;;;1.48;;
47367;SDS011;34646;47.964;7.982;2022-11-20T13:23:22;3.40;;;1.10;;
47367;SDS011;34646;47.964;7.982;2022-11-20T13:29:28;5.68;;;1.20;;
47367;SDS011;34646;47.964;7.982;2022-11-20T13:35:32;2.78;;;1.15;;
47367;SDS011;34646;47.964;7.982;2022-11-20T13:41:35;3.30;;;1.08;;
47367;SDS011;34646;47.964;7.982;2022-11-20T13:47:46;2.65;;;1.13;;
47367;SDS011;34646;47.964;7.982;2022-11-20T13:53:53;3.67;;;1.20;;
47367;SDS011;34646;47.964;7.982;2022-11-20T14:06:11;3.03;;;1.10;;
47367;SDS011;34646;47.964;7.982;2022-11-20T14:12:28;3.08;;;1.05;;
47367;SDS011;34646;47.964;7.982;2022-11-20T14:18:30;2.50;;;1.20;;
47367;SDS011;34646;47.964;7.982;2022-11-20T14:24:31;3.03;;;1.07;;
47367;SDS011;34646;47.964;7.982;2022-11-20T14:36:47;2.83;;;1.25;;
47367;SDS011;34646;47.964;7.982;2022-11-20T14:42:49;3.13;;;1.15;;
47367;SDS011;34646;47.964;7.982;2022-11-20T14:48:51;2.50;;;0.93;;
47367;SDS011;34646;47.964;7.982;2022-11-20T14:54:57;1.98;;;0.80;;
47367;SDS011;34646;47.964;7.982;2022-11-20T15:01:18;4.32;;;1.00;;
47367;SDS011;34646;47.964;7.982;2022-11-20T15:07:33;1.90;;;0.90;;
47367;SDS011;34646;47.964;7.982;2022-11-20T15:13:37;2.42;;;0.75;;
47367;SDS011;34646;47.964;7.982;2022-11-20T15:19:40;2.70;;;1.05;;
47367;SDS011;34646;47.964;7.982;2022-11-20T15:25:41;2.60;;;1.10;;
47367;SDS011;34646;47.964;7.982;2022-11-20T15:31:42;2.60;;;0.90;;
47367;SDS011;34646;47.964;7.982;2022-11-20T15:37:44;2.13;;;0.90;;
47367;SDS011;34646;47.964;7.982;2022-11-20T15:43:46;2.22;;;0.80;;
47367;SDS011;34646;47.964;7.982;2022-11-20T15:49:47;3.30;;;0.87;;
47367;SDS011;34646;47.964;7.982;2022-11-20T15:55:48;2.43;;;1.10;;
47367;SDS011;34646;47.964;7.982;2022-11-20T16:01:54;1.87;;;0.73;;
47367;SDS011;34646;47.964;7.982;2022-11-20T16:07:54;2.72;;;1.02;;
47367;SDS011;34646;47.964;7.982;2022-11-20T16:13:55;6.67;;;2.50;;
47367;SDS011;34646;47.964;7.982;2022-11-20T16:20:14;3.22;;;2.08;;
47367;SDS011;34646;47.964;7.982;2022-11-20T16:26:16;7.40;;;1.67;;
47367;SDS011;34646;47.964;7.982;2022-11-20T16:38:18;8.40;;;2.13;;
47367;SDS011;34646;47.964;7.982;2022-11-20T16:44:19;5.27;;;1.80;;
47367;SDS011;34646;47.964;7.982;2022-11-20T16:50:20;6.93;;;1.58;;
47367;SDS011;34646;47.964;7.982;2022-11-20T16:56:21;6.90;;;2.67;;
47367;SDS011;34646;47.964;7.982;2022-11-20T17:02:23;8.13;;;1.73;;
47367;SDS011;34646;47.964;7.982;2022-11-20T17:08:26;10.35;;;1.70;;
47367;SDS011;34646;47.964;7.982;2022-11-20T17:14:29;12.88;;;2.80;;
47367;SDS011;34646;47.964;7.982;2022-11-20T17:20:30;10.47;;;2.63;;
47367;SDS011;34646;47.964;7.982;2022-11-20T17:26:31;10.38;;;2.88;;
47367;SDS011;34646;47.964;7.982;2022-11-20T17:32:33;10.07;;;2.20;;
47367;SDS011;34646;47.964;7.982;2022-11-20T17:38:34;10.43;;;2.87;;
47367;SDS011;34646;47.964;7.982;2022-11-20T17:44:37;8.77;;;2.35;;
47367;SDS011;34646;47.964;7.982;2022-11-20T17:50:39;10.15;;;2.25;;
47367;SDS011;34646;47.964;7.982;2022-11-20T17:56:40;7.67;;;2.40;;
47367;SDS011;34646;47.964;7.982;2022-11-20T18:03:00;6.72;;;1.83;;
47367;SDS011;34646;47.964;7.982;2022-11-20T18:09:01;5.93;;;2.37;;
47367;SDS011;34646;47.964;7.982;2022-11-20T18:15:03;5.20;;;2.40;;
47367;SDS011;34646;47.964;7.982;2022-11-20T18:21:04;6.37;;;1.93;;
47367;SDS011;34646;47.964;7.982;2022-11-20T18:27:05;9.47;;;2.10;;
47367;SDS011;34646;47.964;7.982;2022-11-20T18:33:07;5.82;;;1.80;;
47367;SDS011;34646;47.964;7.982;2022-11-20T18:39:08;4.60;;;1.70;;
47367;SDS011;34646;47.964;7.982;2022-11-20T18:45:11;3.40;;;1.52;;
47367;SDS011;34646;47.964;7.982;2022-11-20T18:51:11;4.90;;;1.43;;
47367;SDS011;34646;47.964;7.982;2022-11-20T18:57:16;4.43;;;1.48;;
47367;SDS011;34646;47.964;7.982;2022-11-20T19:03:21;4.82;;;1.77;;
47367;SDS011;34646;47.964;7.982;2022-11-20T19:09:22;9.83;;;2.20;;
47367;SDS011;34646;47.964;7.982;2022-11-20T19:15:23;3.17;;;1.60;;
47367;SDS011;34646;47.964;7.982;2022-11-20T19:21:23;3.37;;;1.70;;
47367;SDS011;34646;47.964;7.982;2022-11-20T19:27:26;5.72;;;1.88;;
47367;SDS011;34646;47.964;7.982;2022-11-20T19:33:26;4.37;;;1.80;;
47367;SDS011;34646;47.964;7.982;2022-11-20T19:39:27;4.13;;;1.37;;
47367;SDS011;34646;47.964;7.982;2022-11-20T19:45:28;6.47;;;1.80;;
47367;SDS011;34646;47.964;7.982;2022-11-20T19:51:30;4.67;;;1.23;;
47367;SDS011;34646;47.964;7.982;2022-11-20T19:57:32;3.63;;;1.80;;
47367;SDS011;34646;47.964;7.982;2022-11-20T20:03:33;5.37;;;1.33;;
47367;SDS011;34646;47.964;7.982;2022-11-20T20:09:34;6.00;;;1.30;;
47367;SDS011;34646;47.964;7.982;2022-11-20T20:15:38;3.60;;;1.43;;
47367;SDS011;34646;47.964;7.982;2022-11-20T20:21:40;3.35;;;1.40;;
47367;SDS011;34646;47.964;7.982;2022-11-20T20:27:41;2.53;;;1.30;;
47367;SDS011;34646;47.964;7.982;2022-11-20T20:33:41;3.00;;;1.40;;
47367;SDS011;34646;47.964;7.982;2022-11-20T20:39:43;4.95;;;1.42;;
47367;SDS011;34646;47.964;7.982;2022-11-20T20:45:44;2.83;;;0.80;;
47367;SDS011;34646;47.964;7.982;2022-11-20T20:51:48;2.38;;;1.65;;
47367;SDS011;34646;47.964;7.982;2022-11-20T20:57:49;2.63;;;1.00;;
47367;SDS011;34646;47.964;7.982;2022-11-20T21:03:51;2.30;;;1.00;;
47367;SDS011;34646;47.964;7.982;2022-11-20T21:09:52;3.07;;;1.00;;
47367;SDS011;34646;47.964;7.982;2022-11-20T21:15:52;2.70;;;1.30;;
47367;SDS011;34646;47.964;7.982;2022-11-20T21:21:53;3.43;;;1.17;;
47367;SDS011;34646;47.964;7.982;2022-11-20T21:28:02;2.38;;;0.90;;
47367;SDS011;34646;47.964;7.982;2022-11-20T21:34:02;2.73;;;1.30;;
47367;SDS011;34646;47.964;7.982;2022-11-20T21:40:03;2.23;;;0.90;;
47367;SDS011;34646;47.964;7.982;2022-11-20T21:46:09;1.98;;;1.10;;
47367;SDS011;34646;47.964;7.982;2022-11-20T21:52:11;1.98;;;0.90;;
47367;SDS011;34646;47.964;7.982;2022-11-20T21:58:12;2.40;;;1.10;;
47367;SDS011;34646;47.964;7.982;2022-11-20T22:04:13;2.50;;;0.90;;
47367;SDS011;34646;47.964;7.982;2022-11-20T22:10:16;2.10;;;0.98;;
47367;SDS011;34646;47.964;7.982;2022-11-20T22:16:17;2.70;;;1.17;;
47367;SDS011;34646;47.964;7.982;2022-11-20T22:22:18;1.87;;;0.90;;
47367;SDS011;34646;47.964;7.982;2022-11-20T22:28:18;1.93;;;0.90;;
47367;SDS011;34646;47.964;7.982;2022-11-20T22:34:19;2.33;;;0.93;;
47367;SDS011;34646;47.964;7.982;2022-11-20T22:40:20;2.50;;;1.07;;
47367;SDS011;34646;47.964;7.982;2022-11-20T22:46:21;3.00;;;0.93;;
47367;SDS011;34646;47.964;7.982;2022-11-20T22:58:23;2.47;;;1.08;;
47367;SDS011;34646;47.964;7.982;2022-11-20T23:04:23;1.87;;;0.90;;
47367;SDS011;34646;47.964;7.982;2022-11-20T23:10:24;1.00;;;0.60;;
47367;SDS011;34646;47.964;7.982;2022-11-20T23:16:25;2.50;;;0.80;;
47367;SDS011;34646;47.964;7.982;2022-11-20T23:22:30;1.30;;;0.82;;
47367;SDS011;34646;47.964;7.982;2022-11-20T23:28:31;1.58;;;0.80;;
47367;SDS011;34646;47.964;7.982;2022-11-20T23:34:31;2.37;;;1.00;;
47367;SDS011;34646;47.964;7.982;2022-11-20T23:40:33;2.00;;;0.90;;
47367;SDS011;34646;47.964;7.982;2022-11-20T23:46:34;2.63;;;0.95;;
47367;SDS011;34646;47.964;7.982;2022-11-20T23:52:35;1.10;;;0.70;;
47367;SDS011;34646;47.964;7.982;2022-11-20T23:58:36;1.60;;;0.93;;
